sensor_id;sensor_type;location;lat;lon;timestamp;temperature;humidity
3713;DHT22;1872;51.406;6.856;2023-04-01T00:00:56;9.70;99.90
3713;DHT22;1872;51.406;6.856;2023-04-01T00:03:24;9.70;99.90
3713;DHT22;1872;51.406;6.856;2023-04-01T00:05:51;9.70;99.90
3713;DHT22;1872;51.406;6.856;2023-04-01T00:08:17;9.70;99.90
3713;DHT22;1872;51.406;6.856;2023-04-01T00:10:43;9.70;99.90
3713;DHT22;1872;51.406;6.856;2023-04-01T00:13:09;9.80;99.90
3713;DHT22;1872;51.406;6.856;2023-04-01T00:15:35;9.80;99.90
3713;DHT22;1872;51.406;6.856;2023-04-01T00:18:01;9.70;99.90
3713;DHT22;1872;51.406;6.856;2023-04-01T00:20:28;9.70;99.90
3713;DHT22;1872;51.406;6.856;2023-04-01T00:22:53;9.80;99.90
3713;DHT22;1872;51.406;6.856;2023-04-01T00:25:19;9.80;99.90
3713;DHT22;1872;51.406;6.856;2023-04-01T00:27:46;9.80;99.90
3713;DHT22;1872;51.406;6.856;2023-04-01T00:30:12;9.80;99.90
3713;DHT22;1872;51.406;6.856;2023-04-01T00:32:38;9.80;99.90
3713;DHT22;1872;51.406;6.856;2023-04-01T00:35:04;9.80;99.90
3713;DHT22;1872;51.406;6.856;2023-04-01T00:37:30;9.70;99.90
3713;DHT22;1872;51.406;6.856;2023-04-01T00:39:56;9.70;99.90
3713;DHT22;1872;51.406;6.856;2023-04-01T00:42:22;9.70;99.90
3713;DHT22;1872;51.406;6.856;2023-04-01T00:44:50;9.70;99.90
3713;DHT22;1872;51.406;6.856;2023-04-01T00:47:17;9.70;99.90
3713;DHT22;1872;51.406;6.856;2023-04-01T00:49:46;9.70;99.90
3713;DHT22;1872;51.406;6.856;2023-04-01T00:52:16;9.70;99.90
3713;DHT22;1872;51.406;6.856;2023-04-01T00:54:46;9.70;99.90
3713;DHT22;1872;51.406;6.856;2023-04-01T00:57:25;9.70;99.90
3713;DHT22;1872;51.406;6.856;2023-04-01T00:59:54;9.70;99.90
3713;DHT22;1872;51.406;6.856;2023-04-01T01:02:21;9.70;99.90
3713;DHT22;1872;51.406;6.856;2023-04-01T01:04:47;9.70;99.90
3713;DHT22;1872;51.406;6.856;2023-04-01T01:12:48;9.60;99.90
3713;DHT22;1872;51.406;6.856;2023-04-01T01:15:39;9.60;99.90
3713;DHT22;1872;51.406;6.856;2023-04-01T01:18:32;9.60;99.90
3713;DHT22;1872;51.406;6.856;2023-04-01T01:24:05;9.60;99.90
3713;DHT22;1872;51.406;6.856;2023-04-01T01:37:29;9.60;99.90
3713;DHT22;1872;51.406;6.856;2023-04-01T01:40:04;9.60;99.90
3713;DHT22;1872;51.406;6.856;2023-04-01T01:42:33;9.60;99.90
3713;DHT22;1872;51.406;6.856;2023-04-01T01:45:01;9.60;99.90
3713;DHT22;1872;51.406;6.856;2023-04-01T01:47:29;9.60;99.90
3713;DHT22;1872;51.406;6.856;2023-04-01T01:49:55;9.60;99.90
3713;DHT22;1872;51.406;6.856;2023-04-01T01:52:23;9.60;99.90
3713;DHT22;1872;51.406;6.856;2023-04-01T01:54:51;9.60;99.90
3713;DHT22;1872;51.406;6.856;2023-04-01T01:57:28;9.60;99.90
3713;DHT22;1872;51.406;6.856;2023-04-01T01:59:59;9.60;99.90
3713;DHT22;1872;51.406;6.856;2023-04-01T02:02:26;9.60;99.90
3713;DHT22;1872;51.406;6.856;2023-04-01T02:04:53;9.60;99.90
3713;DHT22;1872;51.406;6.856;2023-04-01T02:07:23;9.60;99.90
3713;DHT22;1872;51.406;6.856;2023-04-01T02:09:51;9.60;99.90
3713;DHT22;1872;51.406;6.856;2023-04-01T02:12:17;9.60;99.90
3713;DHT22;1872;51.406;6.856;2023-04-01T02:15:12;9.60;99.90
3713;DHT22;1872;51.406;6.856;2023-04-01T02:17:43;9.60;99.90
3713;DHT22;1872;51.406;6.856;2023-04-01T02:20:19;9.50;99.90
3713;DHT22;1872;51.406;6.856;2023-04-01T02:22:52;9.50;99.90
3713;DHT22;1872;51.406;6.856;2023-04-01T02:25:30;9.50;99.90
3713;DHT22;1872;51.406;6.856;2023-04-01T02:27:59;9.50;99.90
3713;DHT22;1872;51.406;6.856;2023-04-01T02:30:27;9.50;99.90
3713;DHT22;1872;51.406;6.856;2023-04-01T02:32:57;9.50;99.90
3713;DHT22;1872;51.406;6.856;2023-04-01T02:35:23;9.50;99.90
3713;DHT22;1872;51.406;6.856;2023-04-01T02:37:50;9.50;99.90
3713;DHT22;1872;51.406;6.856;2023-04-01T02:40:17;9.50;99.90
3713;DHT22;1872;51.406;6.856;2023-04-01T02:42:43;9.50;99.90
3713;DHT22;1872;51.406;6.856;2023-04-01T02:45:10;9.50;99.90
3713;DHT22;1872;51.406;6.856;2023-04-01T02:47:36;9.50;99.90
3713;DHT22;1872;51.406;6.856;2023-04-01T02:50:02;9.50;99.90
3713;DHT22;1872;51.406;6.856;2023-04-01T02:52:29;9.60;99.90
3713;DHT22;1872;51.406;6.856;2023-04-01T02:54:55;9.60;99.90
3713;DHT22;1872;51.406;6.856;2023-04-01T02:57:22;9.60;99.90
3713;DHT22;1872;51.406;6.856;2023-04-01T02:59:48;9.60;99.90
3713;DHT22;1872;51.406;6.856;2023-04-01T03:02:14;9.60;99.90
3713;DHT22;1872;51.406;6.856;2023-04-01T03:04:40;9.60;99.90
3713;DHT22;1872;51.406;6.856;2023-04-01T03:07:06;9.60;99.90
3713;DHT22;1872;51.406;6.856;2023-04-01T03:09:32;9.60;99.90
3713;DHT22;1872;51.406;6.856;2023-04-01T03:11:57;9.60;99.90
3713;DHT22;1872;51.406;6.856;2023-04-01T03:14:23;9.60;99.90
3713;DHT22;1872;51.406;6.856;2023-04-01T03:16:49;9.50;99.90
3713;DHT22;1872;51.406;6.856;2023-04-01T03:19:14;9.50;99.90
3713;DHT22;1872;51.406;6.856;2023-04-01T03:21:40;9.50;99.90
3713;DHT22;1872;51.406;6.856;2023-04-01T03:24:07;9.50;99.90
3713;DHT22;1872;51.406;6.856;2023-04-01T03:26:33;9.50;99.90
3713;DHT22;1872;51.406;6.856;2023-04-01T03:28:59;9.50;99.90
3713;DHT22;1872;51.406;6.856;2023-04-01T03:31:25;9.50;99.90
3713;DHT22;1872;51.406;6.856;2023-04-01T03:33:51;9.50;99.90
3713;DHT22;1872;51.406;6.856;2023-04-01T03:36:17;9.50;99.90
3713;DHT22;1872;51.406;6.856;2023-04-01T03:38:44;9.50;99.90
3713;DHT22;1872;51.406;6.856;2023-04-01T03:41:16;9.50;99.90
3713;DHT22;1872;51.406;6.856;2023-04-01T03:43:43;9.50;99.90
3713;DHT22;1872;51.406;6.856;2023-04-01T03:46:09;9.50;99.90
3713;DHT22;1872;51.406;6.856;2023-04-01T03:48:35;9.50;99.90
3713;DHT22;1872;51.406;6.856;2023-04-01T03:51:01;9.50;99.90
3713;DHT22;1872;51.406;6.856;2023-04-01T03:53:27;9.50;99.90
3713;DHT22;1872;51.406;6.856;2023-04-01T03:55:53;9.50;99.90
3713;DHT22;1872;51.406;6.856;2023-04-01T03:58:19;9.50;99.90
3713;DHT22;1872;51.406;6.856;2023-04-01T04:00:45;9.50;99.90
3713;DHT22;1872;51.406;6.856;2023-04-01T04:03:10;9.50;99.90
3713;DHT22;1872;51.406;6.856;2023-04-01T04:05:36;9.50;99.90
3713;DHT22;1872;51.406;6.856;2023-04-01T04:08:02;9.50;99.90
3713;DHT22;1872;51.406;6.856;2023-04-01T04:10:28;9.50;99.90
3713;DHT22;1872;51.406;6.856;2023-04-01T04:12:54;9.50;99.90
3713;DHT22;1872;51.406;6.856;2023-04-01T04:15:20;9.50;99.90
3713;DHT22;1872;51.406;6.856;2023-04-01T04:17:47;9.50;99.90
3713;DHT22;1872;51.406;6.856;2023-04-01T04:20:13;9.50;99.90
3713;DHT22;1872;51.406;6.856;2023-04-01T04:22:39;9.50;99.90
3713;DHT22;1872;51.406;6.856;2023-04-01T04:25:06;9.50;99.90
3713;DHT22;1872;51.406;6.856;2023-04-01T04:27:32;9.50;99.90
3713;DHT22;1872;51.406;6.856;2023-04-01T04:29:58;9.50;99.90
3713;DHT22;1872;51.406;6.856;2023-04-01T04:32:23;9.50;99.90
3713;DHT22;1872;51.406;6.856;2023-04-01T04:34:49;9.50;99.90
3713;DHT22;1872;51.406;6.856;2023-04-01T04:37:15;9.50;99.90
3713;DHT22;1872;51.406;6.856;2023-04-01T04:39:40;9.50;99.90
3713;DHT22;1872;51.406;6.856;2023-04-01T04:42:06;9.50;99.90
3713;DHT22;1872;51.406;6.856;2023-04-01T04:44:32;9.50;99.90
3713;DHT22;1872;51.406;6.856;2023-04-01T04:46:58;9.60;99.90
3713;DHT22;1872;51.406;6.856;2023-04-01T04:49:23;9.60;99.90
3713;DHT22;1872;51.406;6.856;2023-04-01T04:51:49;9.60;99.90
3713;DHT22;1872;51.406;6.856;2023-04-01T04:54:15;9.60;99.90
3713;DHT22;1872;51.406;6.856;2023-04-01T04:56:41;9.60;99.90
3713;DHT22;1872;51.406;6.856;2023-04-01T04:59:07;9.60;99.90
3713;DHT22;1872;51.406;6.856;2023-04-01T05:01:33;9.60;99.90
3713;DHT22;1872;51.406;6.856;2023-04-01T05:03:59;9.60;99.90
3713;DHT22;1872;51.406;6.856;2023-04-01T05:06:25;9.60;99.90
3713;DHT22;1872;51.406;6.856;2023-04-01T05:08:51;9.60;99.90
3713;DHT22;1872;51.406;6.856;2023-04-01T05:11:18;9.60;99.90
3713;DHT22;1872;51.406;6.856;2023-04-01T05:13:44;9.60;99.90
3713;DHT22;1872;51.406;6.856;2023-04-01T05:16:12;9.60;99.90
3713;DHT22;1872;51.406;6.856;2023-04-01T05:18:38;9.60;99.90
3713;DHT22;1872;51.406;6.856;2023-04-01T05:21:06;9.60;99.90
3713;DHT22;1872;51.406;6.856;2023-04-01T05:23:32;9.60;99.90
3713;DHT22;1872;51.406;6.856;2023-04-01T05:26:02;9.50;99.90
3713;DHT22;1872;51.406;6.856;2023-04-01T05:28:28;9.60;99.90
3713;DHT22;1872;51.406;6.856;2023-04-01T05:30:54;9.60;99.90
3713;DHT22;1872;51.406;6.856;2023-04-01T05:33:20;9.60;99.90
3713;DHT22;1872;51.406;6.856;2023-04-01T05:35:46;9.50;99.90
3713;DHT22;1872;51.406;6.856;2023-04-01T05:38:11;9.60;99.90
3713;DHT22;1872;51.406;6.856;2023-04-01T05:40:37;9.60;99.90
3713;DHT22;1872;51.406;6.856;2023-04-01T05:43:03;9.60;99.90
3713;DHT22;1872;51.406;6.856;2023-04-01T05:45:28;9.60;99.90
3713;DHT22;1872;51.406;6.856;2023-04-01T05:47:54;9.60;99.90
3713;DHT22;1872;51.406;6.856;2023-04-01T05:50:20;9.50;99.90
3713;DHT22;1872;51.406;6.856;2023-04-01T05:52:46;9.60;99.90
3713;DHT22;1872;51.406;6.856;2023-04-01T05:55:12;9.60;99.90
3713;DHT22;1872;51.406;6.856;2023-04-01T05:57:41;9.60;99.90
3713;DHT22;1872;51.406;6.856;2023-04-01T06:00:07;9.60;99.90
3713;DHT22;1872;51.406;6.856;2023-04-01T06:02:33;9.50;99.90
3713;DHT22;1872;51.406;6.856;2023-04-01T06:07:42;9.50;99.90
3713;DHT22;1872;51.406;6.856;2023-04-01T06:10:17;9.50;99.90
3713;DHT22;1872;51.406;6.856;2023-04-01T06:21:55;9.60;99.90
3713;DHT22;1872;51.406;6.856;2023-04-01T06:34:57;9.60;99.90
3713;DHT22;1872;51.406;6.856;2023-04-01T06:38:29;9.60;99.90
3713;DHT22;1872;51.406;6.856;2023-04-01T06:43:20;9.70;99.90
3713;DHT22;1872;51.406;6.856;2023-04-01T06:48:57;9.60;99.90
3713;DHT22;1872;51.406;6.856;2023-04-01T06:54:20;9.60;99.90
3713;DHT22;1872;51.406;6.856;2023-04-01T06:56:49;9.60;99.90
3713;DHT22;1872;51.406;6.856;2023-04-01T06:59:28;9.60;99.90
3713;DHT22;1872;51.406;6.856;2023-04-01T07:02:04;9.60;99.90
3713;DHT22;1872;51.406;6.856;2023-04-01T07:04:44;9.60;99.90
3713;DHT22;1872;51.406;6.856;2023-04-01T07:09:56;9.60;99.90
3713;DHT22;1872;51.406;6.856;2023-04-01T07:12:44;9.60;99.90
3713;DHT22;1872;51.406;6.856;2023-04-01T07:15:18;9.70;99.90
3713;DHT22;1872;51.406;6.856;2023-04-01T07:17:50;9.70;99.90
3713;DHT22;1872;51.406;6.856;2023-04-01T07:20:27;9.70;99.90
3713;DHT22;1872;51.406;6.856;2023-04-01T07:22:59;9.70;99.90
3713;DHT22;1872;51.406;6.856;2023-04-01T07:25:35;9.80;99.90
3713;DHT22;1872;51.406;6.856;2023-04-01T07:28:10;9.80;99.90
3713;DHT22;1872;51.406;6.856;2023-04-01T07:33:37;9.80;99.90
3713;DHT22;1872;51.406;6.856;2023-04-01T07:36:22;9.80;99.90
3713;DHT22;1872;51.406;6.856;2023-04-01T07:44:21;9.80;99.90
3713;DHT22;1872;51.406;6.856;2023-04-01T07:49:57;9.80;99.90
3713;DHT22;1872;51.406;6.856;2023-04-01T07:52:59;9.80;99.90
3713;DHT22;1872;51.406;6.856;2023-04-01T07:55:40;9.80;99.90
3713;DHT22;1872;51.406;6.856;2023-04-01T07:58:25;9.80;99.90
3713;DHT22;1872;51.406;6.856;2023-04-01T08:00:59;9.80;99.90
3713;DHT22;1872;51.406;6.856;2023-04-01T08:14:29;10.10;99.90
3713;DHT22;1872;51.406;6.856;2023-04-01T08:22:11;10.20;99.90
3713;DHT22;1872;51.406;6.856;2023-04-01T08:27:23;10.30;99.90
3713;DHT22;1872;51.406;6.856;2023-04-01T08:30:02;10.30;99.90
3713;DHT22;1872;51.406;6.856;2023-04-01T08:32:34;10.30;99.90
3713;DHT22;1872;51.406;6.856;2023-04-01T08:35:08;10.30;99.90
3713;DHT22;1872;51.406;6.856;2023-04-01T08:37:38;10.30;99.90
3713;DHT22;1872;51.406;6.856;2023-04-01T08:40:28;10.30;99.90
3713;DHT22;1872;51.406;6.856;2023-04-01T08:43:21;10.20;99.90
3713;DHT22;1872;51.406;6.856;2023-04-01T08:56:50;10.10;99.90
3713;DHT22;1872;51.406;6.856;2023-04-01T09:36:33;10.40;99.90
3713;DHT22;1872;51.406;6.856;2023-04-01T09:44:56;10.50;99.90
3713;DHT22;1872;51.406;6.856;2023-04-01T10:12:53;10.50;99.90
3713;DHT22;1872;51.406;6.856;2023-04-01T10:22:13;10.60;99.90
3713;DHT22;1872;51.406;6.856;2023-04-01T10:41:52;10.70;99.90
3713;DHT22;1872;51.406;6.856;2023-04-01T10:55:19;10.70;99.90
3713;DHT22;1872;51.406;6.856;2023-04-01T10:58:20;10.70;99.90
3713;DHT22;1872;51.406;6.856;2023-04-01T11:17:49;10.80;99.90
3713;DHT22;1872;51.406;6.856;2023-04-01T11:23:29;10.80;99.90
3713;DHT22;1872;51.406;6.856;2023-04-01T11:34:20;10.80;99.90
3713;DHT22;1872;51.406;6.856;2023-04-01T11:40:08;10.80;99.90
3713;DHT22;1872;51.406;6.856;2023-04-01T11:42:52;10.80;99.90
3713;DHT22;1872;51.406;6.856;2023-04-01T12:11:05;10.70;99.90
3713;DHT22;1872;51.406;6.856;2023-04-01T12:13:48;10.70;99.90
3713;DHT22;1872;51.406;6.856;2023-04-01T12:16:41;10.70;99.90
3713;DHT22;1872;51.406;6.856;2023-04-01T12:19:17;10.70;99.90
3713;DHT22;1872;51.406;6.856;2023-04-01T12:27:10;10.70;99.90
3713;DHT22;1872;51.406;6.856;2023-04-01T12:32:49;10.80;99.90
3713;DHT22;1872;51.406;6.856;2023-04-01T12:35:26;10.90;99.90
3713;DHT22;1872;51.406;6.856;2023-04-01T12:38:10;10.90;99.90
3713;DHT22;1872;51.406;6.856;2023-04-01T12:52:03;11.10;99.90
3713;DHT22;1872;51.406;6.856;2023-04-01T12:54:44;11.20;99.90
3713;DHT22;1872;51.406;6.856;2023-04-01T13:00:30;11.20;99.90
3713;DHT22;1872;51.406;6.856;2023-04-01T13:11:57;11.20;99.90
3713;DHT22;1872;51.406;6.856;2023-04-01T13:19:53;11.10;99.90
3713;DHT22;1872;51.406;6.856;2023-04-01T13:25:47;11.10;99.90
3713;DHT22;1872;51.406;6.856;2023-04-01T13:31:16;11.00;99.90
3713;DHT22;1872;51.406;6.856;2023-04-01T13:33:57;11.00;99.90
3713;DHT22;1872;51.406;6.856;2023-04-01T13:36:54;11.00;99.90
3713;DHT22;1872;51.406;6.856;2023-04-01T13:42:21;11.00;99.90
3713;DHT22;1872;51.406;6.856;2023-04-01T13:45:13;11.00;99.90
3713;DHT22;1872;51.406;6.856;2023-04-01T13:51:00;10.90;99.90
3713;DHT22;1872;51.406;6.856;2023-04-01T13:56:20;11.00;99.90
3713;DHT22;1872;51.406;6.856;2023-04-01T14:07:13;11.00;99.90
3713;DHT22;1872;51.406;6.856;2023-04-01T14:17:59;11.10;99.90
3713;DHT22;1872;51.406;6.856;2023-04-01T14:20:36;11.10;99.90
3713;DHT22;1872;51.406;6.856;2023-04-01T14:23:23;11.10;99.90
3713;DHT22;1872;51.406;6.856;2023-04-01T14:29:27;11.00;99.90
3713;DHT22;1872;51.406;6.856;2023-04-01T14:34:52;10.90;99.90
3713;DHT22;1872;51.406;6.856;2023-04-01T14:48:57;10.90;99.90
3713;DHT22;1872;51.406;6.856;2023-04-01T14:51:35;10.90;99.90
3713;DHT22;1872;51.406;6.856;2023-04-01T14:54:13;10.90;99.90
3713;DHT22;1872;51.406;6.856;2023-04-01T14:56:49;10.90;99.90
3713;DHT22;1872;51.406;6.856;2023-04-01T15:01:56;10.80;99.90
3713;DHT22;1872;51.406;6.856;2023-04-01T15:07:42;10.80;99.90
3713;DHT22;1872;51.406;6.856;2023-04-01T15:18:20;10.80;99.90
3713;DHT22;1872;51.406;6.856;2023-04-01T15:21:08;10.80;99.90
3713;DHT22;1872;51.406;6.856;2023-04-01T15:26:21;10.80;99.90
3713;DHT22;1872;51.406;6.856;2023-04-01T15:29:27;10.80;99.90
3713;DHT22;1872;51.406;6.856;2023-04-01T15:35:09;10.80;99.90
3713;DHT22;1872;51.406;6.856;2023-04-01T15:40:37;10.70;99.90
3713;DHT22;1872;51.406;6.856;2023-04-01T15:54:26;10.70;99.90
3713;DHT22;1872;51.406;6.856;2023-04-01T15:57:12;10.70;99.90
3713;DHT22;1872;51.406;6.856;2023-04-01T16:00:09;10.70;99.90
3713;DHT22;1872;51.406;6.856;2023-04-01T16:02:48;10.70;99.90
3713;DHT22;1872;51.406;6.856;2023-04-01T16:22:40;10.90;99.90
3713;DHT22;1872;51.406;6.856;2023-04-01T16:31:23;10.90;99.90
3713;DHT22;1872;51.406;6.856;2023-04-01T16:33:58;10.90;99.90
3713;DHT22;1872;51.406;6.856;2023-04-01T16:37:07;10.90;99.90
3713;DHT22;1872;51.406;6.856;2023-04-01T16:43:04;10.90;99.90
3713;DHT22;1872;51.406;6.856;2023-04-01T16:45:42;10.90;99.90
3713;DHT22;1872;51.406;6.856;2023-04-01T16:48:12;10.90;99.90
3713;DHT22;1872;51.406;6.856;2023-04-01T16:50:59;10.90;99.90
3713;DHT22;1872;51.406;6.856;2023-04-01T16:56:17;10.80;99.90
3713;DHT22;1872;51.406;6.856;2023-04-01T17:01:27;10.80;99.90
3713;DHT22;1872;51.406;6.856;2023-04-01T17:06:49;10.70;99.90
3713;DHT22;1872;51.406;6.856;2023-04-01T17:12:28;10.70;99.90
3713;DHT22;1872;51.406;6.856;2023-04-01T17:15:11;10.70;99.90
3713;DHT22;1872;51.406;6.856;2023-04-01T17:18:14;10.70;99.90
3713;DHT22;1872;51.406;6.856;2023-04-01T17:20:54;10.70;99.90
3713;DHT22;1872;51.406;6.856;2023-04-01T17:26:36;10.60;99.90
3713;DHT22;1872;51.406;6.856;2023-04-01T17:29:06;10.60;99.90
3713;DHT22;1872;51.406;6.856;2023-04-01T17:42:45;10.60;99.90
3713;DHT22;1872;51.406;6.856;2023-04-01T17:45:26;10.50;99.90
3713;DHT22;1872;51.406;6.856;2023-04-01T17:58:59;10.50;99.90
3713;DHT22;1872;51.406;6.856;2023-04-01T18:15:36;10.60;99.90
3713;DHT22;1872;51.406;6.856;2023-04-01T18:23:46;10.50;99.90
3713;DHT22;1872;51.406;6.856;2023-04-01T18:26:24;10.50;99.90
3713;DHT22;1872;51.406;6.856;2023-04-01T18:37:34;10.50;99.90
3713;DHT22;1872;51.406;6.856;2023-04-01T18:43:27;10.50;99.90
3713;DHT22;1872;51.406;6.856;2023-04-01T18:46:00;10.40;99.90
3713;DHT22;1872;51.406;6.856;2023-04-01T18:48:51;10.40;99.90
3713;DHT22;1872;51.406;6.856;2023-04-01T18:51:25;10.40;99.90
3713;DHT22;1872;51.406;6.856;2023-04-01T18:53:58;10.40;99.90
3713;DHT22;1872;51.406;6.856;2023-04-01T18:56:44;10.40;99.90
3713;DHT22;1872;51.406;6.856;2023-04-01T18:59:33;10.40;99.90
3713;DHT22;1872;51.406;6.856;2023-04-01T19:04:42;10.40;99.90
3713;DHT22;1872;51.406;6.856;2023-04-01T19:07:42;10.40;99.90
3713;DHT22;1872;51.406;6.856;2023-04-01T19:10:31;10.30;99.90
3713;DHT22;1872;51.406;6.856;2023-04-01T19:21:01;10.30;99.90
3713;DHT22;1872;51.406;6.856;2023-04-01T19:26:10;10.30;99.90
3713;DHT22;1872;51.406;6.856;2023-04-01T19:31:53;10.30;99.90
3713;DHT22;1872;51.406;6.856;2023-04-01T19:37:09;10.30;99.90
3713;DHT22;1872;51.406;6.856;2023-04-01T19:39:55;10.30;99.90
3713;DHT22;1872;51.406;6.856;2023-04-01T19:45:29;10.30;99.90
3713;DHT22;1872;51.406;6.856;2023-04-01T19:51:00;10.30;99.90
3713;DHT22;1872;51.406;6.856;2023-04-01T19:53:50;10.30;99.90
3713;DHT22;1872;51.406;6.856;2023-04-01T19:56:19;10.30;99.90
3713;DHT22;1872;51.406;6.856;2023-04-01T19:59:01;10.20;99.90
3713;DHT22;1872;51.406;6.856;2023-04-01T20:04:44;10.10;99.90
3713;DHT22;1872;51.406;6.856;2023-04-01T20:07:16;10.10;99.90
3713;DHT22;1872;51.406;6.856;2023-04-01T20:09:55;10.00;99.90
3713;DHT22;1872;51.406;6.856;2023-04-01T20:14:53;10.00;99.90
3713;DHT22;1872;51.406;6.856;2023-04-01T20:17:32;9.90;99.90
3713;DHT22;1872;51.406;6.856;2023-04-01T20:25:30;9.80;99.90
3713;DHT22;1872;51.406;6.856;2023-04-01T20:28:14;9.80;99.90
3713;DHT22;1872;51.406;6.856;2023-04-01T20:34:15;9.80;99.90
3713;DHT22;1872;51.406;6.856;2023-04-01T20:44:59;9.70;99.90
3713;DHT22;1872;51.406;6.856;2023-04-01T20:53:42;9.60;99.90
3713;DHT22;1872;51.406;6.856;2023-04-01T21:04:18;9.30;99.90
3713;DHT22;1872;51.406;6.856;2023-04-01T21:07:15;9.30;99.90
3713;DHT22;1872;51.406;6.856;2023-04-01T21:10:09;9.30;99.90
3713;DHT22;1872;51.406;6.856;2023-04-01T21:13:01;9.30;99.90
3713;DHT22;1872;51.406;6.856;2023-04-01T21:15:50;9.20;99.90
3713;DHT22;1872;51.406;6.856;2023-04-01T21:32:46;9.00;99.90
3713;DHT22;1872;51.406;6.856;2023-04-01T22:03:18;8.50;99.90
3713;DHT22;1872;51.406;6.856;2023-04-01T22:06:08;8.40;99.90
3713;DHT22;1872;51.406;6.856;2023-04-01T22:08:53;8.40;99.90
3713;DHT22;1872;51.406;6.856;2023-04-01T22:14:13;8.40;99.90
3713;DHT22;1872;51.406;6.856;2023-04-01T22:17:38;8.30;99.90
3713;DHT22;1872;51.406;6.856;2023-04-01T22:22:55;8.20;99.90
3713;DHT22;1872;51.406;6.856;2023-04-01T22:28:11;8.10;99.90
3713;DHT22;1872;51.406;6.856;2023-04-01T22:30:51;8.10;99.90
3713;DHT22;1872;51.406;6.856;2023-04-01T22:33:29;8.00;99.90
3713;DHT22;1872;51.406;6.856;2023-04-01T22:38:44;7.90;99.90
3713;DHT22;1872;51.406;6.856;2023-04-01T22:43:50;7.80;99.90
3713;DHT22;1872;51.406;6.856;2023-04-01T22:49:47;7.80;99.90
3713;DHT22;1872;51.406;6.856;2023-04-01T22:54:48;7.80;99.90
3713;DHT22;1872;51.406;6.856;2023-04-01T23:00:04;7.70;99.90
3713;DHT22;1872;51.406;6.856;2023-04-01T23:02:37;7.70;99.90
3713;DHT22;1872;51.406;6.856;2023-04-01T23:05:10;7.60;99.90
3713;DHT22;1872;51.406;6.856;2023-04-01T23:08:02;7.60;99.90
3713;DHT22;1872;51.406;6.856;2023-04-01T23:10:56;7.60;99.90
3713;DHT22;1872;51.406;6.856;2023-04-01T23:13:38;7.50;99.90
3713;DHT22;1872;51.406;6.856;2023-04-01T23:16:05;7.40;99.90
3713;DHT22;1872;51.406;6.856;2023-04-01T23:21:44;7.40;99.90
3713;DHT22;1872;51.406;6.856;2023-04-01T23:26:49;7.30;99.90
3713;DHT22;1872;51.406;6.856;2023-04-01T23:29:19;7.20;99.90
3713;DHT22;1872;51.406;6.856;2023-04-01T23:31:56;7.20;99.90
3713;DHT22;1872;51.406;6.856;2023-04-01T23:34:30;7.20;99.90
3713;DHT22;1872;51.406;6.856;2023-04-01T23:37:00;7.20;99.90
3713;DHT22;1872;51.406;6.856;2023-04-01T23:39:44;7.10;99.90
3713;DHT22;1872;51.406;6.856;2023-04-01T23:42:24;7.10;99.90
3713;DHT22;1872;51.406;6.856;2023-04-01T23:44:55;7.00;99.90
3713;DHT22;1872;51.406;6.856;2023-04-01T23:47:31;7.10;99.90
3713;DHT22;1872;51.406;6.856;2023-04-01T23:50:01;7.00;99.90
3713;DHT22;1872;51.406;6.856;2023-04-01T23:52:35;7.10;99.90
3713;DHT22;1872;51.406;6.856;2023-04-01T23:55:17;7.10;99.90
